createdAt,value
2023-04-26T00:00:00.266Z,0.7
2023-04-26T00:05:00.590Z,1.7
2023-04-26T00:10:00.263Z,1.5
2023-04-26T00:15:00.306Z,0.5
2023-04-26T00:20:00.252Z,0.6
2023-04-26T00:25:00.432Z,1.0
2023-04-26T00:30:00.271Z,0.6
2023-04-26T00:35:00.285Z,1.4
2023-04-26T00:40:00.247Z,0.6
2023-04-26T00:45:00.301Z,0.9
2023-04-26T00:50:00.479Z,0.9
2023-04-26T00:55:00.256Z,1.1
2023-04-26T01:00:00.357Z,1.4
2023-04-26T01:05:00.250Z,1.3
2023-04-26T01:10:00.289Z,1.3
2023-04-26T01:15:00.291Z,1.6
2023-04-26T01:20:00.291Z,2.2
2023-04-26T01:25:00.247Z,1.7
2023-04-26T01:30:00.292Z,1.6
2023-04-26T01:35:00.346Z,1.6
2023-04-26T01:40:00.283Z,1.5
2023-04-26T01:45:00.319Z,1.7
2023-04-26T01:50:00.290Z,1.4
2023-04-26T01:55:00.305Z,1.2
2023-04-26T02:00:00.234Z,1.7
2023-04-26T02:05:00.361Z,0.9
2023-04-26T02:10:00.236Z,1.1
2023-04-26T02:15:00.285Z,1.2
2023-04-26T02:20:00.289Z,2.2
2023-04-26T02:25:00.285Z,1.6
2023-04-26T02:30:00.246Z,2.2
2023-04-26T02:35:00.432Z,1.1
2023-04-26T02:40:00.296Z,1.4
2023-04-26T02:45:00.289Z,1.5
2023-04-26T02:50:00.239Z,1.2
2023-04-26T02:55:00.289Z,1.2
2023-04-26T03:00:00.625Z,1.7
2023-04-26T03:05:00.274Z,2.9
2023-04-26T03:10:00.293Z,2.9
2023-04-26T03:15:00.337Z,1.8
2023-04-26T03:20:02.476Z,1.6
2023-04-26T03:25:00.293Z,1.9
2023-04-26T03:30:00.271Z,2.0
2023-04-26T03:35:00.300Z,1.1
2023-04-26T03:40:00.247Z,1.1
2023-04-26T03:45:00.294Z,1.1
2023-04-26T03:50:00.339Z,1.4
2023-04-26T03:55:00.441Z,1.0
2023-04-26T04:00:00.274Z,1.4
2023-04-26T04:05:00.708Z,1.1
2023-04-26T04:10:00.237Z,1.2
2023-04-26T04:15:00.440Z,1.3
2023-04-26T04:20:00.277Z,1.5
2023-04-26T04:25:00.439Z,1.8
2023-04-26T04:30:00.276Z,1.4
2023-04-26T04:35:00.241Z,1.7
2023-04-26T04:40:00.549Z,1.6
2023-04-26T04:45:00.241Z,1.3
2023-04-26T04:50:00.301Z,2.2
2023-04-26T04:55:00.297Z,1.5
2023-04-26T05:00:00.318Z,2.1
2023-04-26T05:05:00.280Z,1.8
2023-04-26T05:10:00.295Z,2.1
2023-04-26T05:15:00.281Z,2.5
2023-04-26T05:20:00.273Z,1.7
2023-04-26T05:25:00.254Z,1.9
2023-04-26T05:30:00.282Z,2.0
2023-04-26T05:35:00.242Z,1.8
2023-04-26T05:40:00.294Z,1.6
2023-04-26T05:45:00.322Z,2.1
2023-04-26T05:50:00.293Z,2.0
2023-04-26T05:55:00.248Z,2.0
2023-04-26T06:00:00.268Z,1.6
2023-04-26T06:05:00.415Z,1.9
2023-04-26T06:10:00.315Z,2.0
2023-04-26T06:15:00.251Z,1.9
2023-04-26T06:20:00.286Z,2.4
2023-04-26T06:25:00.251Z,1.6
2023-04-26T06:30:00.290Z,2.2
2023-04-26T06:35:00.274Z,2.3
2023-04-26T06:40:00.296Z,1.5
2023-04-26T06:45:00.243Z,2.7
2023-04-26T06:50:00.276Z,2.0
2023-04-26T06:55:00.279Z,1.8
2023-04-26T07:00:00.290Z,2.9
2023-04-26T07:05:00.386Z,2.5
2023-04-26T07:10:00.300Z,1.8
2023-04-26T07:15:00.288Z,1.8
2023-04-26T07:20:00.365Z,1.5
2023-04-26T07:25:00.253Z,2.0
2023-04-26T07:30:00.301Z,1.7
2023-04-26T07:35:00.303Z,3.6
2023-04-26T07:40:00.287Z,1.7
2023-04-26T07:45:00.248Z,1.3
2023-04-26T07:50:00.290Z,1.7
2023-04-26T07:55:00.278Z,1.6
2023-04-26T08:00:00.298Z,1.7
2023-04-26T08:05:00.711Z,3.2
2023-04-26T08:10:00.307Z,1.1
2023-04-26T08:15:00.285Z,1.1
2023-04-26T08:20:00.290Z,1.4
2023-04-26T08:25:00.268Z,1.1
2023-04-26T08:30:00.295Z,1.7
2023-04-26T08:35:00.281Z,1.8
2023-04-26T08:40:00.304Z,1.5
2023-04-26T08:45:00.267Z,1.1
2023-04-26T08:50:00.285Z,1.5
2023-04-26T08:55:00.273Z,2.4
2023-04-26T09:00:00.297Z,1.8
2023-04-26T09:05:00.666Z,2.1
2023-04-26T09:10:00.313Z,1.8
2023-04-26T09:15:00.245Z,1.7
2023-04-26T09:20:02.301Z,1.9
2023-04-26T09:25:00.298Z,1.8
2023-04-26T09:30:00.319Z,1.8
2023-04-26T09:35:00.282Z,0.9
2023-04-26T09:40:00.280Z,0.8
2023-04-26T09:45:00.258Z,0.8
2023-04-26T09:50:00.296Z,1.4
2023-04-26T09:55:00.281Z,1.2
2023-04-26T10:00:00.297Z,0.7
2023-04-26T10:05:00.560Z,0.9
2023-04-26T10:10:00.288Z,0.9
2023-04-26T10:15:00.265Z,1.1
2023-04-26T10:20:00.301Z,1.0
2023-04-26T10:25:00.264Z,1.0
2023-04-26T10:30:00.336Z,1.1
2023-04-26T10:35:00.239Z,1.1
2023-04-26T10:40:00.284Z,1.0
2023-04-26T10:45:00.342Z,0.8
2023-04-26T10:50:00.281Z,1.2
2023-04-26T10:55:00.272Z,1.3
2023-04-26T11:00:00.322Z,0.9
2023-04-26T11:05:00.463Z,0.9
2023-04-26T11:10:00.297Z,0.6
2023-04-26T11:15:00.270Z,1.0
2023-04-26T11:20:00.289Z,0.6
2023-04-26T11:25:00.285Z,1.8
2023-04-26T11:30:00.288Z,1.3
2023-04-26T11:35:00.255Z,1.0
2023-04-26T11:40:02.313Z,1.6
2023-04-26T11:45:00.248Z,1.1
2023-04-26T11:50:00.282Z,0.7
2023-04-26T11:55:00.310Z,0.6
2023-04-26T12:00:00.281Z,1.2
2023-04-26T12:05:00.437Z,1.1
2023-04-26T12:10:01.088Z,0.6
2023-04-26T12:15:00.241Z,1.3
2023-04-26T12:20:00.290Z,1.2
2023-04-26T12:25:00.518Z,0.8
2023-04-26T12:30:00.284Z,0.9
2023-04-26T12:35:00.239Z,0.9
2023-04-26T12:40:00.289Z,0.5
2023-04-26T12:45:00.399Z,1.0
2023-04-26T12:50:00.294Z,1.0
2023-04-26T12:55:00.236Z,1.4
2023-04-26T13:00:00.303Z,0.5
2023-04-26T13:05:00.371Z,0.6
2023-04-26T13:10:00.310Z,0.6
2023-04-26T13:15:00.352Z,1.3
2023-04-26T13:20:00.292Z,0.6
2023-04-26T13:25:00.255Z,0.7
2023-04-26T13:30:00.308Z,0.7
2023-04-26T13:35:00.252Z,0.6
2023-04-26T13:40:00.301Z,0.8
2023-04-26T13:45:00.549Z,0.8
2023-04-26T13:50:00.295Z,0.9
2023-04-26T13:55:00.245Z,0.9
2023-04-26T14:00:00.311Z,1.5
2023-04-26T14:05:00.494Z,1.0
2023-04-26T14:10:00.295Z,0.8
2023-04-26T14:15:00.304Z,0.8
2023-04-26T14:20:00.296Z,0.7
2023-04-26T14:25:00.248Z,0.9
2023-04-26T14:30:00.294Z,0.5
2023-04-26T14:35:00.250Z,0.7
2023-04-26T14:40:00.302Z,1.0
2023-04-26T14:45:00.311Z,1.0
2023-04-26T14:50:00.286Z,1.5
2023-04-26T14:55:00.242Z,1.1
2023-04-26T15:00:00.300Z,1.0
2023-04-26T15:05:00.357Z,0.6
2023-04-26T15:10:00.281Z,0.7
2023-04-26T15:15:00.241Z,1.3
2023-04-26T15:20:00.286Z,0.9
2023-04-26T15:25:00.270Z,1.4
2023-04-26T15:30:00.334Z,0.7
2023-04-26T15:35:00.263Z,1.0
2023-04-26T15:40:00.372Z,1.1
2023-04-26T15:45:00.294Z,1.8
2023-04-26T15:50:00.384Z,0.7
2023-04-26T15:55:00.306Z,0.8
2023-04-26T16:00:00.309Z,1.1
2023-04-26T16:05:00.362Z,0.9
2023-04-26T16:10:00.295Z,1.2
2023-04-26T16:15:00.253Z,0.6
2023-04-26T16:20:00.414Z,1.0
2023-04-26T16:25:00.301Z,1.0
2023-04-26T16:30:00.340Z,1.0
2023-04-26T16:35:00.242Z,0.7
2023-04-26T16:40:00.360Z,0.9
2023-04-26T16:45:00.256Z,1.6
2023-04-26T16:50:00.462Z,0.8
2023-04-26T16:55:00.281Z,1.5
2023-04-26T17:00:00.281Z,1.8
2023-04-26T17:05:00.460Z,0.8
2023-04-26T17:10:00.300Z,1.1
2023-04-26T17:15:02.272Z,1.4
2023-04-26T17:20:00.269Z,0.9
2023-04-26T17:25:00.224Z,0.8
2023-04-26T17:30:00.303Z,1.6
2023-04-26T17:35:00.248Z,2.0
2023-04-26T17:40:00.278Z,0.9
2023-04-26T17:45:00.274Z,1.0
2023-04-26T17:50:00.288Z,0.9
2023-04-26T17:55:00.261Z,1.1
2023-04-26T18:00:00.399Z,0.8
2023-04-26T18:05:00.417Z,0.7
2023-04-26T18:10:00.318Z,1.0
2023-04-26T18:15:00.248Z,1.3
2023-04-26T18:20:00.298Z,0.9
2023-04-26T18:25:00.296Z,1.2
2023-04-26T18:30:00.299Z,0.9
2023-04-26T18:35:00.263Z,1.1
2023-04-26T18:40:00.290Z,1.0
2023-04-26T18:45:00.265Z,1.1
2023-04-26T18:50:00.288Z,1.5
2023-04-26T18:55:00.238Z,1.3
2023-04-26T19:00:00.308Z,2.6
2023-04-26T19:05:00.327Z,1.5
2023-04-26T19:10:00.689Z,1.8
2023-04-26T19:15:00.318Z,1.2
2023-04-26T19:20:00.324Z,1.1
2023-04-26T19:25:00.240Z,1.6
2023-04-26T19:30:00.299Z,1.0
2023-04-26T19:35:00.275Z,1.4
2023-04-26T19:40:00.329Z,1.6
2023-04-26T19:45:00.268Z,1.5
2023-04-26T19:50:00.305Z,1.9
2023-04-26T19:55:00.238Z,2.1
2023-04-26T20:00:00.288Z,2.3
2023-04-26T20:05:00.296Z,2.1
2023-04-26T20:10:00.301Z,1.7
2023-04-26T20:15:00.247Z,1.8
2023-04-26T20:20:00.276Z,2.7
2023-04-26T20:25:00.286Z,1.7
2023-04-26T20:30:00.315Z,2.3
2023-04-26T20:35:00.259Z,1.8
2023-04-26T20:40:00.290Z,1.7
2023-04-26T20:45:02.169Z,2.3
2023-04-26T20:50:00.333Z,2.0
2023-04-26T20:55:00.260Z,2.3
2023-04-26T21:00:00.327Z,2.2
2023-04-26T21:05:00.249Z,2.4
2023-04-26T21:10:00.274Z,2.6
2023-04-26T21:15:00.284Z,1.7
2023-04-26T21:20:00.305Z,1.6
2023-04-26T21:25:00.249Z,2.5
2023-04-26T21:30:00.305Z,4.4
2023-04-26T21:35:00.281Z,2.2
2023-04-26T21:40:00.291Z,2.6
2023-04-26T21:45:00.254Z,2.3
2023-04-26T21:50:00.309Z,2.8
2023-04-26T21:55:00.244Z,3.5
2023-04-26T22:00:00.316Z,3.2
2023-04-26T22:05:00.263Z,2.7
2023-04-26T22:10:00.301Z,2.2
2023-04-26T22:15:00.245Z,2.0
2023-04-26T22:20:00.273Z,1.7
2023-04-26T22:25:00.286Z,2.1
2023-04-26T22:30:06.186Z,1.5
2023-04-26T22:35:00.240Z,2.0
2023-04-26T22:40:00.285Z,2.6
2023-04-26T22:45:00.303Z,1.8
2023-04-26T22:50:00.298Z,1.2
2023-04-26T22:55:00.310Z,1.6
2023-04-26T23:00:00.291Z,1.3
2023-04-26T23:05:00.546Z,2.1
2023-04-26T23:10:00.406Z,1.6
2023-04-26T23:15:00.263Z,2.0
2023-04-26T23:20:00.300Z,1.7
2023-04-26T23:25:00.266Z,1.6
2023-04-26T23:30:00.285Z,1.8
2023-04-26T23:35:00.291Z,2.3
2023-04-26T23:40:00.306Z,1.4
2023-04-26T23:45:00.259Z,1.6
2023-04-26T23:50:00.342Z,1.7
2023-04-26T23:55:00.279Z,1.7
